Time;durP1;ratioP1;P1;durP2;ratioP2;P2;SDS_P1;SDS_P2;PMS_P1;PMS_P2;Temp;Humidity;BMP_temperature;BMP_pressure;BME280_temperature;BME280_humidity;BME280_pressure;Samples;Min_cycle;Max_cycle;Signal;HPM_P1;HPM_P2
2021/06/14 00:00:10;;;;;;;4.47;2.98;;;;;;;14.31;97.38;98698.76;1786505;80;20942;-69
2021/06/14 00:02:41;;;;;;;5.35;2.70;;;;;;;14.29;97.64;98704.56;1786479;80;21113;-71
2021/06/14 00:05:12;;;;;;;4.45;3.02;;;;;;;14.22;97.94;98695.45;1786352;80;21068;-71
2021/06/14 00:07:39;;;;;;;3.33;3.00;;;;;;;14.18;98.76;98704.47;1786592;80;21025;-70
2021/06/14 00:10:09;;;;;;;8.80;3.42;;;;;;;14.16;99.00;98703.73;1786562;80;20954;-70
2021/06/14 00:12:35;;;;;;;4.55;2.85;;;;;;;14.13;99.38;98693.02;1786488;80;20970;-70
2021/06/14 00:15:05;;;;;;;3.08;2.70;;;;;;;14.10;99.56;98689.30;1786655;80;21953;-70
2021/06/14 00:17:31;;;;;;;4.37;2.90;;;;;;;14.08;99.95;98688.55;1786738;80;20973;-70
2021/06/14 00:19:59;;;;;;;6.00;2.70;;;;;;;14.02;100.00;98688.49;1786588;80;20950;-70
2021/06/14 00:22:25;;;;;;;5.03;2.95;;;;;;;14.00;100.00;98682.53;1786439;80;20922;-70
2021/06/14 00:24:52;;;;;;;5.53;3.10;;;;;;;13.98;100.00;98681.83;1786911;79;21465;-71
2021/06/14 00:27:18;;;;;;;5.25;3.37;;;;;;;13.97;100.00;98687.16;1786729;80;21453;-71
2021/06/14 00:29:45;;;;;;;5.30;3.00;;;;;;;13.94;100.00;98684.27;1786373;80;20927;-70
2021/06/14 00:32:12;;;;;;;4.03;2.80;;;;;;;13.93;100.00;98690.44;1786397;80;20985;-70
2021/06/14 00:34:38;;;;;;;3.52;2.50;;;;;;;13.92;100.00;98685.31;1786879;80;21017;-71
2021/06/14 00:37:05;;;;;;;8.00;3.50;;;;;;;13.91;100.00;98698.02;1786573;80;20985;-71
2021/06/14 00:39:33;;;;;;;5.62;3.62;;;;;;;13.88;100.00;98691.22;1786641;80;21134;-71
2021/06/14 00:41:59;;;;;;;4.12;2.87;;;;;;;13.86;100.00;98687.86;1786552;80;21033;-72
2021/06/14 00:44:26;;;;;;;5.05;3.08;;;;;;;13.82;100.00;98696.84;1786638;80;21396;-72
2021/06/14 00:46:52;;;;;;;5.65;2.67;;;;;;;13.78;100.00;98690.17;1786788;80;21002;-72
2021/06/14 00:49:19;;;;;;;3.87;2.98;;;;;;;13.72;100.00;98684.88;1786440;80;20998;-72
2021/06/14 00:51:45;;;;;;;6.05;3.75;;;;;;;13.71;100.00;98679.28;1786779;80;21088;-74
2021/06/14 00:54:12;;;;;;;3.77;3.20;;;;;;;13.68;100.00;98682.56;1786390;80;21442;-74
2021/06/14 00:56:39;;;;;;;4.70;2.67;;;;;;;13.67;100.00;98670.43;1786426;80;20969;-75
2021/06/14 00:59:05;;;;;;;4.50;2.65;;;;;;;13.62;100.00;98665.50;1786505;80;21405;-77
2021/06/14 01:01:33;;;;;;;4.10;3.10;;;;;;;13.60;100.00;98669.16;1758350;80;21021;-76
2021/06/14 01:04:01;;;;;;;6.53;3.10;;;;;;;13.55;100.00;98669.48;1786478;80;21108;-79
2021/06/14 01:06:28;;;;;;;4.80;2.90;;;;;;;13.52;100.00;98670.15;1786473;79;21005;-79
2021/06/14 01:08:55;;;;;;;5.62;3.05;;;;;;;13.51;100.00;98671.09;1786547;80;20929;-79
2021/06/14 01:11:47;;;;;;;5.45;3.12;;;;;;;13.49;100.00;98669.88;1787022;80;20946;-80
2021/06/14 01:14:37;;;;;;;5.65;3.47;;;;;;;13.47;100.00;98667.83;1787026;80;20938;-80
2021/06/14 01:17:41;;;;;;;6.65;3.22;;;;;;;13.46;100.00;98674.00;1786562;80;21147;-79
2021/06/14 01:20:17;;;;;;;3.62;3.30;;;;;;;13.45;100.00;98666.63;1786543;79;21540;-78
2021/06/14 01:23:18;;;;;;;4.87;2.62;;;;;;;13.44;100.00;98664.11;1786093;80;20945;-80
2021/06/14 01:25:59;;;;;;;5.40;4.05;;;;;;;13.43;100.00;98665.89;1786577;80;20938;-80
2021/06/14 01:28:25;;;;;;;4.17;3.37;;;;;;;13.40;100.00;98660.02;1786566;80;21453;-81
2021/06/14 01:30:53;;;;;;;3.42;2.77;;;;;;;13.38;100.00;98661.92;1786475;80;21088;-81
2021/06/14 01:33:23;;;;;;;5.65;3.30;;;;;;;13.37;100.00;98665.00;1733466;80;21021;-81
2021/06/14 01:35:54;;;;;;;7.28;3.10;;;;;;;13.36;100.00;98661.19;1786613;79;20998;-80
2021/06/14 01:38:24;;;;;;;6.25;3.00;;;;;;;13.35;100.00;98660.34;1786662;80;21449;-79
2021/06/14 01:40:56;;;;;;;4.95;3.20;;;;;;;13.35;100.00;98673.41;1786643;79;21028;-77
2021/06/14 01:43:26;;;;;;;6.97;3.47;;;;;;;13.33;100.00;98671.36;1786676;80;21119;-77
2021/06/14 01:46:00;;;;;;;3.72;2.70;;;;;;;13.32;100.00;98674.91;1787049;80;20945;-76
2021/06/14 01:48:26;;;;;;;2.90;2.60;;;;;;;13.32;100.00;98681.91;1786788;80;20941;-79
2021/06/14 01:50:53;;;;;;;3.87;2.83;;;;;;;13.29;100.00;98680.33;1758528;80;20966;-74
2021/06/14 01:53:20;;;;;;;3.42;2.60;;;;;;;13.29;100.00;98687.32;1786494;80;21510;-76
2021/06/14 01:55:48;;;;;;;3.25;2.50;;;;;;;13.25;100.00;98679.31;1787195;80;21390;-75
2021/06/14 01:58:17;;;;;;;3.10;2.50;;;;;;;13.24;100.00;98683.70;1786598;80;20918;-74
2021/06/14 02:00:45;;;;;;;3.30;2.22;;;;;;;13.24;100.00;98677.63;1786017;80;20938;-74
2021/06/14 02:03:16;;;;;;;3.05;2.55;;;;;;;13.23;100.00;98682.02;1762693;80;20990;-74
2021/06/14 02:05:47;;;;;;;5.55;3.12;;;;;;;13.22;100.00;98672.97;1781159;80;20986;-75
2021/06/14 02:08:16;;;;;;;5.65;2.70;;;;;;;13.18;100.00;98681.97;1750891;80;21931;-77
2021/06/14 02:10:42;;;;;;;2.80;2.40;;;;;;;13.15;100.00;98672.99;1780784;80;20907;-73
2021/06/14 02:13:09;;;;;;;5.70;2.20;;;;;;;13.11;100.00;98667.13;1780850;80;21041;-72
2021/06/14 02:15:36;;;;;;;5.05;2.62;;;;;;;13.06;100.00;98664.80;1750782;80;21356;-75
2021/06/14 02:18:04;;;;;;;3.37;2.37;;;;;;;13.01;100.00;98668.17;1780964;80;21461;-73
2021/06/14 02:20:32;;;;;;;3.75;2.30;;;;;;;12.96;100.00;98666.34;1781051;80;21818;-75
2021/06/14 02:23:00;;;;;;;4.25;2.67;;;;;;;12.90;100.00;98668.03;1780803;80;21025;-74
2021/06/14 02:25:27;;;;;;;2.98;2.02;;;;;;;12.88;100.00;98676.42;1780926;80;20943;-73
2021/06/14 02:27:56;;;;;;;4.20;2.40;;;;;;;12.86;100.00;98665.23;1780544;80;20954;-73
2021/06/14 02:30:26;;;;;;;3.83;2.45;;;;;;;12.84;100.00;98657.97;1780872;80;20978;-73
2021/06/14 02:32:53;;;;;;;3.27;2.83;;;;;;;12.83;100.00;98668.03;1780792;80;21131;-72
2021/06/14 02:35:22;;;;;;;3.70;2.62;;;;;;;12.84;100.00;98663.66;1780778;80;20931;-72
2021/06/14 02:37:53;;;;;;;3.90;2.30;;;;;;;12.82;100.00;98658.53;1780723;80;21022;-73
2021/06/14 02:40:23;;;;;;;3.47;2.40;;;;;;;12.80;100.00;98651.73;1780657;80;21498;-73
2021/06/14 02:42:50;;;;;;;2.83;2.05;;;;;;;12.79;100.00;98665.24;1750475;80;21029;-74
2021/06/14 02:45:17;;;;;;;2.70;2.08;;;;;;;12.78;100.00;98663.59;1780807;80;21386;-72
2021/06/14 02:47:46;;;;;;;2.58;2.10;;;;;;;12.79;100.00;98661.83;1780784;80;21087;-73
2021/06/14 02:50:16;;;;;;;3.50;2.37;;;;;;;12.79;100.00;98667.05;1780748;80;20918;-73
2021/06/14 02:52:42;;;;;;;3.65;2.10;;;;;;;12.80;100.00;98660.39;1780752;80;20938;-71
2021/06/14 02:55:14;;;;;;;4.12;2.70;;;;;;;12.80;100.00;98653.88;1780739;80;21049;-71
2021/06/14 02:57:52;;;;;;;3.90;2.90;;;;;;;12.79;100.00;98667.85;1750805;80;21130;-72
2021/06/14 03:00:28;;;;;;;4.55;3.00;;;;;;;12.82;100.00;98668.13;1780376;80;20970;-72
2021/06/14 03:03:03;;;;;;;4.05;2.02;;;;;;;12.83;100.00;98660.20;1780849;80;21406;-72
2021/06/14 03:05:30;;;;;;;4.47;2.85;;;;;;;12.85;100.00;98658.34;1780630;80;21018;-73
2021/06/14 03:08:00;;;;;;;3.15;2.10;;;;;;;12.88;100.00;98655.55;1780818;80;20938;-71
2021/06/14 03:10:30;;;;;;;7.03;3.47;;;;;;;12.91;100.00;98660.57;1780696;80;21145;-71
2021/06/14 03:12:57;;;;;;;3.35;2.52;;;;;;;12.92;100.00;98667.94;1780639;80;20950;-71
2021/06/14 03:15:25;;;;;;;4.00;2.27;;;;;;;12.94;100.00;98664.77;1780693;80;20981;-72
2021/06/14 03:17:53;;;;;;;3.02;2.40;;;;;;;12.96;100.00;98670.72;1780826;80;21481;-72
2021/06/14 03:20:21;;;;;;;3.02;2.40;;;;;;;12.98;100.00;98671.00;1780717;80;20973;-72
2021/06/14 03:22:48;;;;;;;2.70;2.12;;;;;;;13.00;100.00;98673.02;1750378;80;21399;-72
2021/06/14 03:25:15;;;;;;;2.80;2.50;;;;;;;13.04;100.00;98671.05;1780637;80;20942;-73
2021/06/14 03:27:43;;;;;;;6.50;2.90;;;;;;;13.06;100.00;98677.86;1780796;80;20997;-73
2021/06/14 03:30:12;;;;;;;8.85;2.90;;;;;;;13.08;100.00;98675.15;1780859;80;20997;-74
2021/06/14 03:32:42;;;;;;;3.92;2.52;;;;;;;13.11;100.00;98684.94;1780674;80;21013;-72
2021/06/14 03:35:17;;;;;;;6.65;2.70;;;;;;;13.14;100.00;98677.38;1780457;80;21770;-71
2021/06/14 03:37:44;;;;;;;3.58;2.30;;;;;;;13.17;100.00;98669.85;1750290;80;21021;-72
2021/06/14 03:40:13;;;;;;;2.90;2.60;;;;;;;13.19;100.00;98669.28;1780685;80;20950;-72
2021/06/14 03:42:40;;;;;;;6.45;3.40;;;;;;;13.22;100.00;98665.98;1780491;80;21037;-72
2021/06/14 03:45:08;;;;;;;4.80;2.50;;;;;;;13.24;100.00;98668.50;1780963;80;20950;-72
2021/06/14 03:47:37;;;;;;;4.42;2.42;;;;;;;13.27;100.00;98673.05;1780788;80;20962;-73
2021/06/14 03:50:09;;;;;;;6.42;2.90;;;;;;;13.30;100.00;98683.77;1780699;80;21383;-73
2021/06/14 03:52:40;;;;;;;4.53;3.10;;;;;;;13.31;100.00;98672.39;1780619;80;20989;-73
2021/06/14 03:55:08;;;;;;;4.92;2.77;;;;;;;13.32;100.00;98676.21;1780417;80;20946;-74
2021/06/14 03:57:35;;;;;;;4.80;2.80;;;;;;;13.34;100.00;98672.20;1780696;80;20973;-73
2021/06/14 04:00:07;;;;;;;8.08;2.80;;;;;;;13.36;100.00;98670.33;1780691;80;21125;-73
2021/06/14 04:02:35;;;;;;;4.17;2.80;;;;;;;13.39;100.00;98674.85;1780387;79;20974;-73
2021/06/14 04:05:01;;;;;;;4.85;3.08;;;;;;;13.41;100.00;98672.98;1786691;80;20973;-73
2021/06/14 04:07:36;;;;;;;3.67;2.80;;;;;;;13.44;100.00;98684.54;1784492;80;21450;-74
2021/06/14 04:10:05;;;;;;;4.05;3.17;;;;;;;13.49;100.00;98691.25;1786568;80;20990;-74
2021/06/14 04:12:33;;;;;;;4.33;2.90;;;;;;;13.52;100.00;98691.89;1786492;79;20970;-74
2021/06/14 04:15:00;;;;;;;5.12;3.42;;;;;;;13.54;100.00;98696.55;1786458;80;21021;-73
2021/06/14 04:17:28;;;;;;;4.03;2.45;;;;;;;13.58;100.00;98691.96;1786568;80;21001;-74
2021/06/14 04:19:55;;;;;;;3.35;2.85;;;;;;;13.60;100.00;98692.67;1786549;80;20946;-74
2021/06/14 04:22:21;;;;;;;3.83;2.98;;;;;;;13.62;100.00;98687.72;1786772;80;21470;-74
2021/06/14 04:24:47;;;;;;;4.83;3.05;;;;;;;13.64;100.00;98681.92;1786481;80;21133;-74
2021/06/14 04:27:14;;;;;;;4.00;2.70;;;;;;;13.67;100.00;98687.41;1786396;80;20938;-74
2021/06/14 04:29:42;;;;;;;3.00;2.50;;;;;;;13.67;100.00;98688.72;1786522;80;21457;-74
2021/06/14 04:32:08;;;;;;;3.50;2.80;;;;;;;13.69;100.00;98690.77;1786788;80;21504;-74
2021/06/14 04:34:36;;;;;;;5.05;2.52;;;;;;;13.71;100.00;98684.50;1786471;80;20969;-74
2021/06/14 04:37:02;;;;;;;4.55;3.05;;;;;;;13.75;100.00;98701.66;1786518;80;21524;-74
2021/06/14 04:39:29;;;;;;;3.30;3.00;;;;;;;13.79;100.00;98708.80;1786482;80;21033;-75
2021/06/14 04:41:56;;;;;;;2.92;2.58;;;;;;;13.82;100.00;98716.91;1786455;80;20965;-74
2021/06/14 04:44:23;;;;;;;2.40;2.20;;;;;;;13.83;100.00;98700.30;1786553;80;21001;-74
2021/06/14 04:46:50;;;;;;;2.95;2.62;;;;;;;13.84;100.00;98717.18;1786555;80;21049;-75
2021/06/14 04:49:16;;;;;;;2.90;2.40;;;;;;;13.86;100.00;98717.08;1786650;79;21808;-75
2021/06/14 04:51:42;;;;;;;3.42;2.50;;;;;;;13.87;100.00;98710.91;1786374;80;21455;-73
2021/06/14 04:54:09;;;;;;;5.08;3.27;;;;;;;13.92;100.00;98710.14;1786390;80;21037;-75
2021/06/14 04:56:36;;;;;;;3.58;3.00;;;;;;;13.97;100.00;98711.99;1786607;80;21449;-75
2021/06/14 04:59:03;;;;;;;4.90;3.00;;;;;;;14.00;100.00;98707.37;1786314;80;20962;-74
2021/06/14 05:01:30;;;;;;;2.83;2.60;;;;;;;14.07;100.00;98713.87;1785961;80;21181;-74
2021/06/14 05:03:57;;;;;;;3.95;3.30;;;;;;;14.10;100.00;98717.59;1785729;80;21060;-75
2021/06/14 05:06:23;;;;;;;5.62;3.40;;;;;;;14.10;100.00;98707.59;1786186;80;21418;-75
2021/06/14 05:08:50;;;;;;;4.78;3.30;;;;;;;14.12;100.00;98713.09;1786591;80;21004;-75
2021/06/14 05:11:16;;;;;;;4.33;3.72;;;;;;;14.16;100.00;98718.13;1783772;80;21004;-75
2021/06/14 05:13:43;;;;;;;3.87;3.45;;;;;;;14.20;100.00;98713.02;1785090;80;21983;-74
2021/06/14 05:16:09;;;;;;;3.80;3.37;;;;;;;14.23;100.00;98718.05;1786067;80;21477;-75
2021/06/14 05:18:36;;;;;;;3.95;3.58;;;;;;;14.24;100.00;98720.56;1786569;80;21453;-75
2021/06/14 05:21:02;;;;;;;6.75;4.33;;;;;;;14.25;100.00;98720.93;1769073;80;21036;-74
2021/06/14 05:23:29;;;;;;;5.25;4.47;;;;;;;14.26;100.00;98725.69;1752505;81;21020;-73
2021/06/14 05:25:55;;;;;;;3.60;3.17;;;;;;;14.26;100.00;98730.45;1755018;81;21128;-76
2021/06/14 05:28:22;;;;;;;4.03;3.70;;;;;;;14.30;100.00;98732.39;1755347;81;20954;-75
2021/06/14 05:30:48;;;;;;;4.87;4.15;;;;;;;14.34;100.00;98739.09;1755481;81;21815;-76
2021/06/14 05:33:14;;;;;;;5.10;4.60;;;;;;;14.37;100.00;98739.73;1755524;81;20954;-76
2021/06/14 05:35:41;;;;;;;4.75;3.92;;;;;;;14.47;100.00;98739.95;1755671;81;20973;-75
2021/06/14 05:38:07;;;;;;;4.08;3.77;;;;;;;14.57;100.00;98738.39;1755375;81;21219;-72
2021/06/14 05:40:34;;;;;;;4.10;3.70;;;;;;;14.69;100.00;98747.99;1755174;81;21037;-71
2021/06/14 05:43:00;;;;;;;4.83;4.35;;;;;;;14.82;100.00;98746.66;1783463;79;21469;-73
2021/06/14 05:45:27;;;;;;;4.72;4.33;;;;;;;14.89;99.82;98745.29;1784123;80;20989;-72
2021/06/14 05:47:53;;;;;;;5.60;4.65;;;;;;;14.95;99.59;98757.95;1786489;80;20970;-76
2021/06/14 05:50:19;;;;;;;6.17;5.10;;;;;;;15.00;99.42;98747.97;1785764;80;21291;-75
2021/06/14 05:52:46;;;;;;;5.42;4.58;;;;;;;15.08;99.38;98748.28;1772458;80;21453;-76
2021/06/14 05:55:15;;;;;;;5.90;5.40;;;;;;;15.14;98.84;98753.09;1765352;80;21071;-76
2021/06/14 05:57:42;;;;;;;6.30;5.80;;;;;;;15.23;98.36;98753.36;1768885;80;20985;-76
2021/06/14 06:00:10;;;;;;;8.15;5.72;;;;;;;15.30;97.68;98757.22;1755331;81;21040;-77
2021/06/14 06:02:40;;;;;;;6.62;6.08;;;;;;;15.33;97.57;98756.53;1756485;80;21184;-72
2021/06/14 06:05:08;;;;;;;6.67;5.80;;;;;;;15.40;97.61;98758.22;1765189;80;20895;-72
2021/06/14 06:07:36;;;;;;;7.78;6.50;;;;;;;15.49;97.25;98752.32;1786350;80;20977;-74
2021/06/14 06:10:05;;;;;;;7.15;6.40;;;;;;;15.57;96.86;98763.59;1786538;80;21403;-74
2021/06/14 06:12:32;;;;;;;7.80;6.42;;;;;;;15.61;96.68;98761.92;1760102;80;21025;-73
2021/06/14 06:15:01;;;;;;;6.78;5.95;;;;;;;15.71;96.77;98763.41;1782723;80;21051;-76
2021/06/14 06:17:29;;;;;;;7.92;7.20;;;;;;;15.81;96.20;98760.46;1786154;80;21072;-76
2021/06/14 06:19:56;;;;;;;7.62;6.92;;;;;;;15.93;95.83;98755.63;1786513;80;20969;-75
2021/06/14 06:22:22;;;;;;;7.12;6.53;;;;;;;16.02;95.69;98764.11;1786672;80;21064;-72
2021/06/14 06:24:49;;;;;;;6.25;5.75;;;;;;;16.12;95.32;98762.96;1786571;80;21071;-76
2021/06/14 06:27:15;;;;;;;7.37;6.75;;;;;;;16.19;94.99;98763.67;1786722;80;21950;-76
2021/06/14 06:29:42;;;;;;;6.97;6.25;;;;;;;16.27;94.82;98760.95;1786379;79;21508;-75
2021/06/14 06:32:09;;;;;;;7.40;6.53;;;;;;;16.49;95.01;98763.14;1786477;80;21060;-76
2021/06/14 06:34:38;;;;;;;6.58;6.08;;;;;;;16.68;94.28;98760.44;1786650;80;21375;-76
2021/06/14 06:37:05;;;;;;;5.78;5.28;;;;;;;16.68;94.28;98760.44;1786482;80;20973;-78
2021/06/14 06:39:31;;;;;;;5.45;5.03;;;;;;;16.86;93.65;98772.14;1786694;79;21843;-78
2021/06/14 06:42:00;;;;;;;6.37;5.78;;;;;;;17.01;92.97;98768.30;1786570;80;20934;-76
2021/06/14 06:44:26;;;;;;;6.20;5.00;;;;;;;17.13;92.43;98765.20;1786889;80;21390;-76
2021/06/14 06:46:53;;;;;;;5.55;5.05;;;;;;;17.25;92.78;98762.05;1786703;79;20934;-78
2021/06/14 06:49:20;;;;;;;5.20;4.70;;;;;;;17.43;92.32;98775.03;1783024;80;21185;-76
2021/06/14 06:51:48;;;;;;;5.20;4.70;;;;;;;17.50;91.17;98771.80;1755104;81;20946;-76
2021/06/14 06:54:15;;;;;;;5.25;4.67;;;;;;;17.60;91.42;98780.24;1755305;80;20926;-76
2021/06/14 06:56:44;;;;;;;4.85;4.42;;;;;;;17.75;91.34;98784.31;1755334;81;21017;-73
2021/06/14 06:59:12;;;;;;;6.80;4.70;;;;;;;17.88;89.82;98775.28;1755663;81;21504;-76
2021/06/14 07:01:38;;;;;;;5.97;4.97;;;;;;;18.05;89.83;98784.88;1755640;81;20934;-73
2021/06/14 07:04:06;;;;;;;4.90;4.50;;;;;;;18.19;88.75;98789.34;1755628;81;21899;-74
2021/06/14 07:06:33;;;;;;;6.10;4.65;;;;;;;18.30;88.85;98790.27;1755673;81;20954;-75
2021/06/14 07:09:00;;;;;;;5.03;4.55;;;;;;;18.43;87.65;98789.09;1755583;81;21020;-76
2021/06/14 07:11:28;;;;;;;5.40;3.92;;;;;;;18.53;87.45;98790.48;1755596;81;20946;-76
2021/06/14 07:13:55;;;;;;;5.30;4.80;;;;;;;18.63;87.08;98799.77;1755297;81;20977;-79
2021/06/14 07:16:22;;;;;;;6.67;5.08;;;;;;;18.74;86.79;98806.28;1755279;81;22014;-74
2021/06/14 07:18:50;;;;;;;4.92;4.45;;;;;;;18.80;86.17;98809.70;1755423;81;21060;-74
2021/06/14 07:21:17;;;;;;;4.83;4.20;;;;;;;18.81;85.83;98810.88;1755619;80;20950;-75
2021/06/14 07:23:43;;;;;;;5.12;4.67;;;;;;;18.84;85.45;98813.26;1755583;81;21079;-77
2021/06/14 07:26:10;;;;;;;4.78;4.17;;;;;;;18.96;84.79;98817.98;1755805;81;21005;-76
2021/06/14 07:28:37;;;;;;;5.08;3.80;;;;;;;19.16;84.03;98821.04;1755695;81;21134;-73
2021/06/14 07:31:04;;;;;;;4.15;3.75;;;;;;;19.38;83.33;98833.19;1755716;80;21069;-75
2021/06/14 07:33:32;;;;;;;4.53;3.65;;;;;;;19.61;82.20;98817.49;1755639;81;20993;-78
2021/06/14 07:35:58;;;;;;;5.53;3.72;;;;;;;19.78;81.83;98823.93;1755689;81;20945;-72
2021/06/14 07:38:25;;;;;;;4.70;4.15;;;;;;;19.99;80.38;98827.73;1755754;80;20970;-77
2021/06/14 07:40:52;;;;;;;4.60;4.10;;;;;;;20.17;79.86;98830.05;1755684;80;21101;-74
2021/06/14 07:43:19;;;;;;;4.65;4.25;;;;;;;20.41;78.80;98832.27;1755562;80;21013;-79
2021/06/14 07:45:46;;;;;;;5.55;3.90;;;;;;;20.62;77.62;98832.09;1755658;81;21072;-76
2021/06/14 07:48:13;;;;;;;4.35;3.95;;;;;;;20.73;77.38;98835.08;1755550;81;20950;-76
2021/06/14 07:50:40;;;;;;;4.50;4.20;;;;;;;20.88;77.74;98833.63;1755655;81;21504;-80
2021/06/14 07:53:07;;;;;;;6.30;4.67;;;;;;;21.08;75.47;98846.30;1755598;80;21970;-76
2021/06/14 07:55:35;;;;;;;4.72;3.98;;;;;;;21.13;75.37;98843.56;1755746;81;21012;-81
2021/06/14 07:58:03;;;;;;;4.53;4.12;;;;;;;21.13;75.34;98849.34;1755684;80;20995;-80
2021/06/14 08:00:29;;;;;;;6.28;4.60;;;;;;;21.10;74.76;98845.17;1755499;81;21087;-82
2021/06/14 08:02:56;;;;;;;5.35;4.87;;;;;;;21.07;75.19;98856.52;1755501;81;20909;-79
2021/06/14 08:05:22;;;;;;;6.33;4.80;;;;;;;21.05;74.89;98853.19;1753255;80;22946;-79
2021/06/14 08:07:50;;;;;;;4.80;4.45;;;;;;;21.03;74.41;98863.07;1752351;80;21024;-79
2021/06/14 08:10:18;;;;;;;5.22;4.75;;;;;;;20.98;74.87;98860.88;1752432;80;20960;-77
2021/06/14 08:12:51;;;;;;;5.20;4.80;;;;;;;20.88;75.11;98866.67;1752481;81;21012;-80
2021/06/14 08:15:22;;;;;;;5.42;4.60;;;;;;;20.73;75.02;98861.50;1752671;82;20924;-78
2021/06/14 08:17:49;;;;;;;5.53;5.03;;;;;;;20.51;75.58;98867.93;1752897;82;21124;-73
2021/06/14 08:20:35;;;;;;;5.33;4.92;;;;;;;20.30;77.24;98877.30;1752385;82;21049;-76
2021/06/14 08:25:38;;;;;;;5.25;4.85;;;;;;;20.09;80.70;98870.83;1752323;80;21053;-74
2021/06/14 08:28:05;;;;;;;5.97;5.37;;;;;;;20.10;80.68;98880.41;1779374;80;20967;-75
2021/06/14 08:30:34;;;;;;;5.12;4.62;;;;;;;20.16;80.31;98879.03;1779956;80;21133;-77
2021/06/14 08:33:00;;;;;;;6.25;4.72;;;;;;;20.24;80.11;98881.80;1769686;80;20986;-81
2021/06/14 08:35:28;;;;;;;7.35;4.92;;;;;;;20.33;79.76;98881.47;1761084;80;20985;-78
2021/06/14 08:37:55;;;;;;;5.70;5.30;;;;;;;20.36;78.29;98879.38;1749840;82;20957;-79
2021/06/14 08:40:26;;;;;;;5.92;5.53;;;;;;;20.34;77.58;98884.45;1776034;80;21060;-78
2021/06/14 08:42:53;;;;;;;4.97;4.55;;;;;;;20.35;77.70;98888.77;1771143;80;21242;-78
2021/06/14 08:45:20;;;;;;;5.65;5.15;;;;;;;20.38;77.79;98888.04;1775876;80;21005;-77
2021/06/14 08:47:49;;;;;;;5.62;5.12;;;;;;;20.42;77.06;98891.20;1780268;80;20906;-77
2021/06/14 08:50:18;;;;;;;5.65;5.05;;;;;;;20.45;77.15;98895.73;1764817;80;21560;-78
2021/06/14 08:52:45;;;;;;;5.50;5.00;;;;;;;20.50;77.36;98892.67;1749999;81;20950;-78
2021/06/14 08:55:14;;;;;;;8.78;5.75;;;;;;;20.56;77.13;98894.28;1749798;82;21469;-80
2021/06/14 08:57:41;;;;;;;6.05;5.12;;;;;;;20.64;77.31;98894.39;1749669;82;21474;-80
2021/06/14 09:00:15;;;;;;;9.23;5.65;;;;;;;20.74;76.09;98901.48;1714011;83;21087;-78
2021/06/14 09:02:42;;;;;;;7.00;5.22;;;;;;;20.76;76.66;98899.05;1687810;84;21019;-79
2021/06/14 09:05:10;;;;;;;6.00;5.50;;;;;;;20.82;76.26;98901.11;1720493;82;21044;-78
2021/06/14 09:07:36;;;;;;;5.62;5.12;;;;;;;20.87;76.42;98905.97;1713964;83;21070;-78
2021/06/14 09:10:05;;;;;;;4.97;4.58;;;;;;;20.94;76.06;98907.08;1688557;85;21104;-77
2021/06/14 09:12:40;;;;;;;5.87;5.37;;;;;;;21.04;76.60;98906.55;1749733;82;20969;-76
2021/06/14 09:15:09;;;;;;;5.72;5.22;;;;;;;21.16;76.34;98908.55;1749102;82;20970;-77
2021/06/14 09:17:36;;;;;;;5.60;5.20;;;;;;;21.28;76.31;98906.10;1749769;82;20958;-77
2021/06/14 09:20:06;;;;;;;6.25;5.50;;;;;;;21.41;75.11;98907.08;1720789;82;21134;-78
2021/06/14 09:22:32;;;;;;;5.12;4.65;;;;;;;21.43;75.37;98904.64;1712961;83;20954;-79
2021/06/14 09:25:09;;;;;;;5.37;4.87;;;;;;;21.46;74.91;98902.20;1688801;85;21536;-79
2021/06/14 09:27:40;;;;;;;7.72;5.35;;;;;;;21.40;74.78;98916.83;1749757;82;21019;-79
2021/06/14 09:30:26;;;;;;;5.65;5.10;;;;;;;21.32;76.00;98931.29;1750277;82;20950;-76
2021/06/14 09:33:06;;;;;;;6.30;4.75;;;;;;;21.25;76.57;98946.06;1749723;82;21127;-73
2021/06/14 09:35:36;;;;;;;8.35;5.97;;;;;;;21.12;79.95;98960.89;1748957;82;21041;-72
2021/06/14 09:38:15;;;;;;;6.67;5.28;;;;;;;20.64;90.71;98956.48;1749666;82;21457;-72
2021/06/14 09:40:48;;;;;;;8.95;6.55;;;;;;;20.16;94.33;98948.52;1749731;82;21493;-75
2021/06/14 09:43:31;;;;;;;8.35;4.58;;;;;;;19.90;97.01;98954.77;1749204;82;21498;-74
2021/06/14 09:46:00;;;;;;;7.13;3.83;;;;;;;19.87;98.81;98949.77;1713026;83;21108;-74
2021/06/14 09:48:28;;;;;;;4.15;3.77;;;;;;;19.98;100.00;98954.59;1713472;83;20959;-77
2021/06/14 09:51:00;;;;;;;9.18;6.05;;;;;;;20.15;100.00;98949.97;1688635;85;20960;-78
2021/06/14 09:53:34;;;;;;;3.55;2.50;;;;;;;20.43;100.00;98955.78;1749776;81;20962;-78
2021/06/14 09:55:56;;;;;;;3.10;2.83;;;;;;;20.72;100.00;98957.13;1713715;83;20962;-78
2021/06/14 09:58:24;;;;;;;3.20;2.52;;;;;;;20.96;100.00;98960.65;1714146;82;21281;-78
2021/06/14 10:00:59;;;;;;;4.10;3.05;;;;;;;21.20;99.44;98954.91;1689357;85;21519;-79
2021/06/14 10:03:29;;;;;;;3.52;3.22;;;;;;;21.44;99.25;98959.71;1751482;82;20939;-79
2021/06/14 10:05:56;;;;;;;5.92;4.37;;;;;;;21.63;93.59;98963.61;1719627;83;21026;-78
2021/06/14 10:08:32;;;;;;;3.70;2.95;;;;;;;21.74;93.15;98970.05;1704517;84;21159;-79
2021/06/14 10:11:19;;;;;;;2.52;2.33;;;;;;;21.83;88.51;98964.34;1704431;82;21137;-80
2021/06/14 10:13:49;;;;;;;2.85;2.62;;;;;;;21.91;85.81;98965.78;1729495;82;21010;-75
2021/06/14 10:16:23;;;;;;;2.87;2.67;;;;;;;21.98;84.00;98962.38;1749032;82;21042;-77
2021/06/14 10:18:58;;;;;;;3.45;3.17;;;;;;;22.09;84.10;98968.50;1750053;82;21029;-78
2021/06/14 10:21:31;;;;;;;2.80;2.60;;;;;;;22.25;83.31;98963.38;1749538;82;21056;-77
2021/06/14 10:24:00;;;;;;;4.45;3.20;;;;;;;22.42;82.42;98961.22;1749959;82;21900;-76
2021/06/14 10:26:28;;;;;;;3.15;2.80;;;;;;;22.57;80.81;98960.23;1749669;82;21572;-74
2021/06/14 10:28:56;;;;;;;5.10;2.98;;;;;;;22.64;77.54;98960.77;1748744;82;21232;-77
2021/06/14 10:31:23;;;;;;;2.83;2.62;;;;;;;22.73;77.99;98964.34;1748247;82;21033;-77
2021/06/14 10:33:51;;;;;;;3.17;2.67;;;;;;;22.90;75.40;98964.84;1749827;82;21198;-71
2021/06/14 10:36:25;;;;;;;2.70;2.45;;;;;;;23.08;74.89;98955.52;1748721;82;21034;-74
2021/06/14 10:38:53;;;;;;;2.60;2.17;;;;;;;23.26;72.12;98964.26;1752265;82;21050;-73
2021/06/14 10:41:23;;;;;;;2.62;2.37;;;;;;;23.33;69.12;98961.82;1752241;82;21034;-72
2021/06/14 10:43:51;;;;;;;1.80;1.70;;;;;;;23.31;69.58;98971.75;1752267;82;21010;-72
2021/06/14 10:46:21;;;;;;;2.87;1.70;;;;;;;23.29;66.96;98965.28;1752301;82;20947;-78
2021/06/14 10:48:48;;;;;;;2.00;1.90;;;;;;;23.30;66.92;98965.62;1752411;82;21118;-79
2021/06/14 10:51:17;;;;;;;2.25;2.05;;;;;;;23.36;67.83;98957.04;1727322;82;20975;-80
2021/06/14 10:53:51;;;;;;;1.98;1.87;;;;;;;23.46;67.28;98964.04;1752177;82;21061;-77
2021/06/14 10:56:19;;;;;;;2.25;1.98;;;;;;;23.52;65.73;98966.94;1752309;82;21011;-81
2021/06/14 10:59:04;;;;;;;1.98;1.77;;;;;;;23.56;66.70;98972.28;1752274;82;20963;-79
2021/06/14 11:01:34;;;;;;;2.15;2.00;;;;;;;23.64;67.32;98975.45;1752467;82;21959;-79
2021/06/14 11:04:02;;;;;;;3.17;2.02;;;;;;;23.71;65.16;98972.50;1752104;82;21015;-80
2021/06/14 11:06:30;;;;;;;2.37;2.17;;;;;;;23.68;63.64;98974.14;1730994;82;21423;-80
2021/06/14 11:09:08;;;;;;;2.08;1.95;;;;;;;23.60;62.38;98977.58;1780723;79;20986;-83
2021/06/14 11:11:54;;;;;;;2.00;1.90;;;;;;;23.55;61.83;98977.73;1780701;80;21005;-81
2021/06/14 11:14:33;;;;;;;2.45;2.22;;;;;;;23.46;63.07;98982.13;1780823;80;21144;-81
2021/06/14 11:17:34;;;;;;;3.72;2.30;;;;;;;23.44;63.54;98981.94;1780989;80;21507;-79
2021/06/14 11:20:07;;;;;;;2.27;2.10;;;;;;;23.43;64.74;98981.11;1746701;80;21001;-80
2021/06/14 11:22:37;;;;;;;1.98;1.87;;;;;;;23.50;65.17;98976.84;1741773;81;21033;-81
2021/06/14 11:25:27;;;;;;;1.98;1.87;;;;;;;23.56;64.53;98978.08;1740427;82;21458;-81
2021/06/14 11:27:54;;;;;;;2.02;1.92;;;;;;;23.57;63.32;98975.27;1741791;81;21277;-82
2021/06/14 11:30:28;;;;;;;1.98;1.87;;;;;;;23.62;62.55;98980.08;1741492;82;21038;-83
2021/06/14 11:32:56;;;;;;;2.20;2.00;;;;;;;23.68;61.93;98966.18;1741700;81;20961;-78
2021/06/14 11:35:22;;;;;;;3.10;1.87;;;;;;;23.78;62.34;98968.20;1741807;82;20982;-76
2021/06/14 11:37:50;;;;;;;1.80;1.70;;;;;;;23.83;61.34;98965.08;1712919;82;21454;-75
2021/06/14 11:40:29;;;;;;;1.75;1.65;;;;;;;23.76;61.31;98963.58;1741914;82;21365;-79